createdAt,value
2018-05-23T00:00:41.057Z,101844.33
2018-05-23T00:03:44.371Z,101843.08
2018-05-23T00:06:47.676Z,101845.02
2018-05-23T00:09:51.004Z,101842.74
2018-05-23T00:12:54.393Z,101845.19
2018-05-23T00:15:57.697Z,101845.12
2018-05-23T00:19:01.013Z,101840.59
2018-05-23T00:22:04.314Z,101844.10
2018-05-23T00:25:08.395Z,101846.43
2018-05-23T00:28:11.707Z,101855.28
2018-05-23T00:31:15.025Z,101857.41
2018-05-23T00:34:19.090Z,101854.27
2018-05-23T00:37:22.401Z,101862.17
2018-05-23T00:40:25.705Z,101869.67
2018-05-23T00:43:29.018Z,101868.23
2018-05-23T00:46:33.105Z,101874.36
2018-05-23T00:49:36.406Z,101881.06
2018-05-23T00:52:39.721Z,101881.33
2018-05-23T00:55:43.030Z,101887.19
2018-05-23T00:58:47.109Z,101891.84
2018-05-23T01:01:50.418Z,101891.42
2018-05-23T01:04:53.734Z,101892.27
2018-05-23T01:07:57.808Z,101894.06
2018-05-23T01:11:01.133Z,101900.98
2018-05-23T01:14:04.490Z,101898.48
2018-05-23T01:17:07.793Z,101899.24
2018-05-23T01:20:11.138Z,101901.03
2018-05-23T01:23:15.209Z,101900.19
2018-05-23T01:26:18.518Z,101906.80
2018-05-23T01:29:21.834Z,101902.06
2018-05-23T01:32:25.162Z,101907.70
2018-05-23T01:35:28.458Z,101908.13
2018-05-23T01:38:31.772Z,101912.22
2018-05-23T01:41:35.089Z,101918.95
2018-05-23T01:44:38.401Z,101921.17
2018-05-23T01:47:41.725Z,101913.41
2018-05-23T01:50:45.045Z,101923.38
2018-05-23T01:53:48.370Z,101923.26
2018-05-23T01:56:51.685Z,101919.50
2018-05-23T01:59:55.002Z,101923.59
2018-05-23T02:02:58.313Z,101920.95
2018-05-23T02:06:01.695Z,101931.67
2018-05-23T02:09:06.857Z,101931.55
2018-05-23T02:12:10.164Z,101933.34
2018-05-23T02:15:13.473Z,101942.66
2018-05-23T02:18:16.890Z,101942.57
2018-05-23T02:21:20.194Z,101944.58
2018-05-23T02:24:23.527Z,101940.99
2018-05-23T02:27:27.607Z,101940.78
2018-05-23T02:30:30.917Z,101948.23
2018-05-23T02:33:34.237Z,101949.38
2018-05-23T02:36:38.317Z,101946.86
2018-05-23T02:39:41.626Z,101948.65
2018-05-23T02:42:44.946Z,101952.31
2018-05-23T02:45:49.022Z,101959.55
2018-05-23T02:48:52.333Z,101954.61
2018-05-23T02:51:55.664Z,101964.48
2018-05-23T02:54:58.978Z,101961.11
2018-05-23T02:58:02.336Z,101964.34
2018-05-23T03:01:06.410Z,101962.17
2018-05-23T03:04:09.735Z,101964.77
2018-05-23T03:07:13.072Z,101963.41
2018-05-23T03:10:16.409Z,101970.44
2018-05-23T03:13:19.714Z,101975.48
2018-05-23T03:16:23.041Z,101982.09
2018-05-23T03:19:27.109Z,101981.88
2018-05-23T03:22:30.425Z,101990.39
2018-05-23T03:25:33.739Z,101990.47
2018-05-23T03:28:37.829Z,101989.42
2018-05-23T03:31:41.162Z,101986.91
2018-05-23T03:34:45.240Z,101988.81
2018-05-23T03:37:48.564Z,101990.91
2018-05-23T03:40:51.882Z,101989.55
2018-05-23T03:43:55.215Z,102000.97
2018-05-23T03:46:58.525Z,102010.09
2018-05-23T03:50:01.857Z,102006.23
2018-05-23T03:53:05.942Z,102012.52
2018-05-23T03:56:09.285Z,102011.50
2018-05-23T03:59:12.593Z,102012.77
2018-05-23T04:06:30.849Z,102019.48
2018-05-23T04:09:34.159Z,102024.65
2018-05-23T04:12:37.490Z,102022.86
2018-05-23T04:15:40.802Z,102030.55
2018-05-23T04:18:44.112Z,102043.86
2018-05-23T04:21:47.421Z,102050.90
2018-05-23T04:24:51.518Z,102047.23
2018-05-23T04:27:54.837Z,102046.59
2018-05-23T04:30:58.165Z,102046.05
2018-05-23T04:34:01.474Z,102045.31
2018-05-23T04:37:04.814Z,102056.54
2018-05-23T04:40:08.894Z,102058.41
2018-05-23T04:43:12.213Z,102059.84
2018-05-23T04:46:15.517Z,102053.84
2018-05-23T04:49:18.842Z,102067.25
2018-05-23T04:52:22.140Z,102066.59
2018-05-23T04:55:25.478Z,102076.14
2018-05-23T04:58:28.790Z,102077.58
2018-05-23T05:01:32.135Z,102081.08
2018-05-23T05:04:35.437Z,102084.72
2018-05-23T05:07:38.824Z,102091.92
2018-05-23T05:10:42.097Z,102099.31
2018-05-23T05:13:46.243Z,102096.90
2018-05-23T05:16:49.514Z,102099.77
2018-05-23T05:19:53.614Z,102104.33
2018-05-23T05:22:56.925Z,102103.31
2018-05-23T05:26:01.042Z,102109.75
2018-05-23T05:29:05.119Z,102116.05
2018-05-23T05:32:08.445Z,102114.59
2018-05-23T05:35:11.749Z,102118.41
2018-05-23T05:38:15.846Z,102118.37
2018-05-23T05:41:19.149Z,102120.33
2018-05-23T05:44:22.472Z,102122.95
2018-05-23T05:47:25.782Z,102123.44
2018-05-23T05:50:29.101Z,102126.99
2018-05-23T05:53:32.495Z,102129.28
2018-05-23T05:56:35.754Z,102127.00
2018-05-23T05:59:39.837Z,102135.48
2018-05-23T06:02:43.167Z,102138.55
2018-05-23T06:05:46.477Z,102139.59
2018-05-23T06:08:49.798Z,102140.81
2018-05-23T06:11:53.113Z,102144.73
2018-05-23T06:14:56.438Z,102154.52
2018-05-23T06:18:00.518Z,102153.06
2018-05-23T06:21:03.848Z,102166.80
2018-05-23T06:24:07.933Z,102167.20
2018-05-23T06:27:11.257Z,102172.19
2018-05-23T06:30:15.385Z,102178.14
2018-05-23T06:33:18.674Z,102182.89
2018-05-23T06:36:22.749Z,102180.50
2018-05-23T06:39:26.066Z,102181.55
2018-05-23T06:42:29.505Z,102188.28
2018-05-23T06:45:32.809Z,102191.87
2018-05-23T06:48:36.134Z,102187.75
2018-05-23T06:51:39.457Z,102193.91
2018-05-23T06:54:42.777Z,102190.53
2018-05-23T06:57:46.848Z,102192.63
2018-05-23T07:00:50.199Z,102188.86
2018-05-23T07:03:53.509Z,102194.86
2018-05-23T07:06:56.818Z,102195.16
2018-05-23T07:10:00.133Z,102199.87
2018-05-23T07:13:03.462Z,102197.16
2018-05-23T07:16:06.763Z,102207.05
2018-05-23T07:19:10.854Z,102210.38
2018-05-23T07:22:14.162Z,102208.00
2018-05-23T07:25:17.499Z,102214.61
2018-05-23T07:28:20.809Z,102212.86
2018-05-23T07:31:24.142Z,102217.77
2018-05-23T07:34:27.452Z,102224.61
2018-05-23T07:37:30.773Z,102229.34
2018-05-23T07:40:34.082Z,102221.62
2018-05-23T07:43:37.415Z,102224.66
2018-05-23T07:46:40.722Z,102230.02
2018-05-23T07:49:44.051Z,102230.86
2018-05-23T07:52:48.137Z,102229.36
2018-05-23T07:55:51.453Z,102235.41
2018-05-23T07:58:54.758Z,102235.94
2018-05-23T08:01:58.836Z,102242.30
2018-05-23T08:05:02.150Z,102239.72
2018-05-23T08:08:06.242Z,102248.08
2018-05-23T08:11:09.545Z,102250.61
2018-05-23T08:14:12.865Z,102252.42
2018-05-23T08:17:16.938Z,102258.02
2018-05-23T08:20:20.285Z,102257.75
2018-05-23T08:23:24.353Z,102261.68
2018-05-23T08:26:27.669Z,102260.79
2018-05-23T08:29:30.977Z,102256.60
2018-05-23T08:32:34.338Z,102259.55
2018-05-23T08:35:37.649Z,102269.66
2018-05-23T08:38:40.991Z,102265.59
2018-05-23T08:41:44.296Z,102269.04
2018-05-23T08:44:47.643Z,102270.39
2018-05-23T08:47:50.944Z,102270.35
2018-05-23T08:50:54.288Z,102270.12
2018-05-23T08:53:57.593Z,102275.88
2018-05-23T08:57:01.708Z,102272.20
2018-05-23T09:00:05.014Z,102274.36
2018-05-23T09:03:08.350Z,102276.34
2018-05-23T09:06:11.654Z,102281.78
2018-05-23T09:09:15.741Z,102275.70
2018-05-23T09:12:19.191Z,102283.34
2018-05-23T09:15:23.153Z,102284.59
2018-05-23T09:18:26.469Z,102281.41
2018-05-23T09:21:29.769Z,102291.16
2018-05-23T09:24:33.089Z,102291.48
2018-05-23T09:27:37.158Z,102289.55
2018-05-23T09:30:40.478Z,102291.34
2018-05-23T09:33:43.776Z,102296.06
2018-05-23T09:36:47.089Z,102291.34
2018-05-23T09:39:51.174Z,102289.95
2018-05-23T09:42:54.510Z,102293.71
2018-05-23T09:45:57.812Z,102289.81
2018-05-23T09:49:01.131Z,102293.97
2018-05-23T09:52:04.438Z,102299.52
2018-05-23T09:55:07.774Z,102298.56
2018-05-23T09:58:11.850Z,102298.14
2018-05-23T10:01:15.161Z,102307.19
2018-05-23T10:04:18.469Z,102306.48
2018-05-23T10:07:21.790Z,102310.95
2018-05-23T10:10:25.869Z,102309.10
2018-05-23T10:13:29.191Z,102308.84
2018-05-23T10:16:33.274Z,102304.22
2018-05-23T10:19:36.576Z,102303.34
2018-05-23T10:22:39.907Z,102319.20
2018-05-23T10:25:43.237Z,102317.30
2018-05-23T10:28:46.550Z,102308.39
2018-05-23T10:31:49.861Z,102313.67
2018-05-23T10:34:53.191Z,102312.02
2018-05-23T10:37:57.279Z,102315.05
2018-05-23T10:41:00.588Z,102316.29
2018-05-23T10:44:04.014Z,102318.89
2018-05-23T10:47:07.317Z,102309.42
2018-05-23T10:50:10.633Z,102316.92
2018-05-23T10:53:13.971Z,102311.20
2018-05-23T10:56:17.273Z,102315.51
2018-05-23T10:59:20.585Z,102324.27
2018-05-23T11:02:23.966Z,102323.04
2018-05-23T11:05:27.372Z,102322.88
2018-05-23T11:08:30.675Z,102323.98
2018-05-23T11:11:34.777Z,102318.93
2018-05-23T11:14:38.081Z,102327.05
2018-05-23T11:17:41.404Z,102326.78
2018-05-23T11:20:44.730Z,102324.27
2018-05-23T11:23:48.078Z,102327.77
2018-05-23T11:26:54.953Z,102326.25
2018-05-23T11:29:59.059Z,102335.18
2018-05-23T11:33:02.365Z,102334.20
2018-05-23T11:36:06.449Z,102340.03
2018-05-23T11:39:09.758Z,102328.60
2018-05-23T11:42:13.074Z,102347.84
2018-05-23T11:45:16.373Z,102341.31
2018-05-23T11:48:20.665Z,102335.09
2018-05-23T11:51:24.019Z,102338.95
2018-05-23T11:54:27.330Z,102327.20
2018-05-23T11:57:30.676Z,102336.38
2018-05-23T12:00:33.990Z,102325.37
2018-05-23T12:03:38.112Z,102334.55
2018-05-23T12:06:41.413Z,102333.44
2018-05-23T12:09:44.731Z,102329.52
2018-05-23T12:12:48.034Z,102333.30
2018-05-23T12:15:51.359Z,102333.84
2018-05-23T12:18:54.670Z,102336.48
2018-05-23T12:21:57.981Z,102335.63
2018-05-23T12:25:02.045Z,102334.12
2018-05-23T12:28:05.370Z,102332.02
2018-05-23T12:31:08.682Z,102325.46
2018-05-23T12:34:12.782Z,102338.98
2018-05-23T12:37:16.085Z,102338.87
2018-05-23T12:40:19.406Z,102333.57
2018-05-23T12:43:22.709Z,102335.05
2018-05-23T12:46:26.021Z,102332.67
2018-05-23T12:49:29.330Z,102338.89
2018-05-23T12:52:32.655Z,102326.95
2018-05-23T12:55:35.973Z,102332.50
2018-05-23T12:58:40.066Z,102335.72
2018-05-23T13:01:43.401Z,102337.40
2018-05-23T13:04:46.714Z,102347.30
2018-05-23T13:07:50.034Z,102350.65
2018-05-23T13:10:53.337Z,102343.56
2018-05-23T13:13:56.662Z,102347.59
2018-05-23T13:16:59.981Z,102355.97
2018-05-23T13:20:03.290Z,102348.33
2018-05-23T13:23:06.613Z,102340.92
2018-05-23T13:26:09.925Z,102341.64
2018-05-23T13:29:13.257Z,102352.05
2018-05-23T13:32:17.350Z,102346.19
2018-05-23T13:35:20.665Z,102344.41
2018-05-23T13:38:25.469Z,102343.29
2018-05-23T13:41:28.779Z,102343.55
2018-05-23T13:44:32.901Z,102338.41
2018-05-23T13:47:37.052Z,102339.05
2018-05-23T13:50:40.329Z,102335.59
2018-05-23T13:53:43.637Z,102336.80
2018-05-23T13:56:46.970Z,102330.23
2018-05-23T13:59:50.276Z,102321.13
2018-05-23T14:02:53.599Z,102329.41
2018-05-23T14:05:57.673Z,102322.78
2018-05-23T14:09:00.996Z,102322.81
2018-05-23T14:12:04.292Z,102338.00
2018-05-23T14:15:07.622Z,102334.73
2018-05-23T14:18:10.957Z,102327.70
2018-05-23T14:21:14.305Z,102327.19
2018-05-23T14:24:18.379Z,102323.48
2018-05-23T14:27:21.714Z,102324.26
2018-05-23T14:30:25.791Z,102326.80
2018-05-23T14:33:29.104Z,102325.83
2018-05-23T14:36:32.428Z,102320.04
2018-05-23T14:39:36.504Z,102322.87
2018-05-23T14:42:39.841Z,102318.42
2018-05-23T14:45:43.918Z,102312.58
2018-05-23T14:48:47.234Z,102322.25
2018-05-23T14:51:50.546Z,102318.63
2018-05-23T14:54:54.659Z,102317.17
2018-05-23T14:57:58.742Z,102310.02
2018-05-23T15:01:02.059Z,102311.73
2018-05-23T15:04:05.374Z,102320.32
2018-05-23T15:07:09.454Z,102316.44
2018-05-23T15:10:12.761Z,102323.09
2018-05-23T15:13:16.091Z,102323.84
2018-05-23T15:16:19.398Z,102321.47
2018-05-23T15:19:22.705Z,102326.45
2018-05-23T15:22:26.026Z,102318.94
2018-05-23T15:25:29.355Z,102317.38
2018-05-23T15:28:33.427Z,102312.38
2018-05-23T15:31:36.757Z,102319.67
2018-05-23T15:34:40.062Z,102317.82
2018-05-23T15:37:44.137Z,102316.77
2018-05-23T15:40:47.434Z,102319.06
2018-05-23T15:43:50.749Z,102309.94
2018-05-23T15:46:54.093Z,102309.31
2018-05-23T15:49:57.417Z,102304.56
2018-05-23T15:53:00.721Z,102310.09
2018-05-23T15:56:04.067Z,102305.84
2018-05-23T15:59:07.386Z,102314.72
2018-05-23T16:02:10.726Z,102313.27
2018-05-23T16:05:14.039Z,102310.62
2018-05-23T16:08:17.400Z,102310.80
2018-05-23T16:11:20.710Z,102318.59
2018-05-23T16:14:24.029Z,102312.84
2018-05-23T16:17:28.136Z,102311.87
2018-05-23T16:20:31.496Z,102313.09
2018-05-23T16:23:34.786Z,102311.11
2018-05-23T16:26:38.092Z,102316.68
2018-05-23T16:29:41.396Z,102313.62
2018-05-23T16:32:44.725Z,102314.11
2018-05-23T16:35:48.025Z,102317.49
2018-05-23T16:38:51.339Z,102317.52
2018-05-23T16:41:55.410Z,102316.61
2018-05-23T16:44:58.742Z,102314.26
2018-05-23T16:48:02.809Z,102313.70
2018-05-23T16:51:06.118Z,102310.23
2018-05-23T16:54:09.418Z,102308.30
2018-05-23T16:57:12.749Z,102313.17
2018-05-23T17:00:16.818Z,102317.87
2018-05-23T17:03:20.133Z,102315.67
2018-05-23T17:06:23.463Z,102317.05
2018-05-23T17:09:26.782Z,102316.61
2018-05-23T17:12:30.105Z,102310.78
2018-05-23T17:15:33.426Z,102317.00
2018-05-23T17:18:36.750Z,102311.56
2018-05-23T17:21:40.093Z,102311.55
2018-05-23T17:24:43.397Z,102313.48
2018-05-23T17:27:46.710Z,102311.97
2018-05-23T17:30:50.018Z,102314.18
2018-05-23T17:33:54.099Z,102314.73
2018-05-23T17:36:57.405Z,102313.87
2018-05-23T17:40:00.719Z,102320.27
2018-05-23T17:43:04.799Z,102317.61
2018-05-23T17:46:08.120Z,102316.33
2018-05-23T17:49:11.424Z,102319.55
2018-05-23T17:52:14.764Z,102314.81
2018-05-23T17:55:18.064Z,102318.26
2018-05-23T17:58:21.383Z,102320.06
2018-05-23T18:01:24.691Z,102327.65
2018-05-23T18:04:28.022Z,102325.00
2018-05-23T18:07:32.099Z,102326.23
2018-05-23T18:10:35.450Z,102327.89
2018-05-23T18:13:38.761Z,102325.98
2018-05-23T18:16:42.118Z,102324.33
2018-05-23T18:19:45.418Z,102314.31
2018-05-23T18:22:49.494Z,102323.45
2018-05-23T18:25:52.809Z,102321.48
2018-05-23T18:28:56.113Z,102329.50
2018-05-23T18:31:59.433Z,102323.06
2018-05-23T18:35:02.741Z,102332.04
2018-05-23T18:38:06.053Z,102330.38
2018-05-23T18:41:09.393Z,102331.87
2018-05-23T18:44:12.707Z,102333.76
2018-05-23T18:47:16.802Z,102337.17
2018-05-23T18:50:20.126Z,102337.71
2018-05-23T18:53:24.215Z,102335.89
2018-05-23T18:56:27.542Z,102339.23
2018-05-23T18:59:30.857Z,102343.18
2018-05-23T19:02:34.178Z,102348.13
2018-05-23T19:05:37.497Z,102346.37
2018-05-23T19:08:40.801Z,102349.59
2018-05-23T19:11:44.117Z,102351.34
2018-05-23T19:14:48.196Z,102352.18
2018-05-23T19:17:51.497Z,102350.66
2018-05-23T19:20:54.823Z,102354.69
2018-05-23T19:23:58.893Z,102356.08
2018-05-23T19:27:02.211Z,102354.55
2018-05-23T19:30:05.524Z,102361.30
2018-05-23T19:33:09.623Z,102365.81
2018-05-23T19:36:12.944Z,102358.72
2018-05-23T19:39:17.025Z,102368.64
2018-05-23T19:42:20.338Z,102367.03
2018-05-23T19:45:23.667Z,102372.95
2018-05-23T19:48:26.981Z,102375.83
2018-05-23T19:51:30.298Z,102382.02
2018-05-23T19:54:33.609Z,102380.84
2018-05-23T19:57:36.928Z,102381.86
2018-05-23T20:00:40.235Z,102385.66
2018-05-23T20:03:44.322Z,102388.72
2018-05-23T20:06:47.650Z,102392.94
2018-05-23T20:09:51.738Z,102392.20
2018-05-23T20:12:55.057Z,102397.22
2018-05-23T20:15:58.369Z,102397.02
2018-05-23T20:19:01.702Z,102397.09
2018-05-23T20:22:05.014Z,102400.22
2018-05-23T20:25:08.355Z,102402.47
2018-05-23T20:28:11.697Z,102400.30
2018-05-23T20:31:15.013Z,102397.97
2018-05-23T20:34:18.334Z,102392.41
2018-05-23T20:37:21.671Z,102395.64
2018-05-23T20:40:25.021Z,102394.78
2018-05-23T20:43:28.346Z,102401.16
2018-05-23T20:46:31.690Z,102402.23
2018-05-23T20:49:35.006Z,102399.65
2018-05-23T20:52:38.334Z,102404.46
2018-05-23T20:55:41.664Z,102409.31
2018-05-23T20:58:45.014Z,102405.58
2018-05-23T21:01:49.073Z,102411.58
2018-05-23T21:04:52.384Z,102414.81
2018-05-23T21:07:55.699Z,102421.55
2018-05-23T21:10:59.022Z,102415.58
2018-05-23T21:14:03.103Z,102423.03
2018-05-23T21:17:06.430Z,102419.19
2018-05-23T21:20:10.509Z,102424.09
2018-05-23T21:23:13.822Z,102419.45
2018-05-23T21:26:17.156Z,102428.06
2018-05-23T21:29:20.465Z,102434.70
2018-05-23T21:32:23.785Z,102434.27
2018-05-23T21:35:27.106Z,102433.40
2018-05-23T21:38:30.418Z,102439.59
2018-05-23T21:41:34.526Z,102446.98
2018-05-23T21:44:37.828Z,102444.47
2018-05-23T21:47:41.932Z,102441.03
2018-05-23T21:50:45.228Z,102438.92
2018-05-23T21:53:48.550Z,102440.04
2018-05-23T21:56:51.859Z,102437.89
2018-05-23T21:59:55.179Z,102442.47
2018-05-23T22:02:58.506Z,102446.44
2018-05-23T22:06:01.818Z,102442.88
2018-05-23T22:09:05.920Z,102447.06
2018-05-23T22:12:09.233Z,102452.50
2018-05-23T22:15:13.313Z,102445.50
2018-05-23T22:18:16.671Z,102448.73
2018-05-23T22:21:20.730Z,102450.56
2018-05-23T22:24:24.071Z,102453.86
2018-05-23T22:27:28.166Z,102456.34
2018-05-23T22:30:32.336Z,102449.53
2018-05-23T22:33:35.578Z,102446.84
2018-05-23T22:36:39.654Z,102449.39
2018-05-23T22:39:42.983Z,102450.02
2018-05-23T22:42:46.322Z,102446.58
2018-05-23T22:45:49.628Z,102449.05
2018-05-23T22:48:52.944Z,102446.23
2018-05-23T22:51:56.265Z,102453.33
2018-05-23T22:54:59.585Z,102452.92
2018-05-23T22:58:02.890Z,102450.78
2018-05-23T23:01:06.209Z,102457.24
2018-05-23T23:04:09.517Z,102452.20
2018-05-23T23:07:12.840Z,102456.05
2018-05-23T23:10:16.150Z,102454.92
2018-05-23T23:13:19.469Z,102453.16
2018-05-23T23:16:22.781Z,102452.02
2018-05-23T23:19:26.102Z,102459.67
2018-05-23T23:22:39.156Z,102462.42
2018-05-23T23:25:42.470Z,102465.92
2018-05-23T23:28:46.562Z,102466.58
2018-05-23T23:31:49.873Z,102468.07
2018-05-23T23:34:53.194Z,102476.70
2018-05-23T23:37:56.506Z,102468.89
2018-05-23T23:40:59.827Z,102462.77
2018-05-23T23:44:03.130Z,102463.91
2018-05-23T23:47:06.450Z,102474.40
2018-05-23T23:50:09.758Z,102473.38
2018-05-23T23:53:13.858Z,102471.39
2018-05-23T23:56:17.390Z,102473.44
2018-05-23T23:59:20.701Z,102466.52
